sensor_id;sensor_type;location;lat;lon;timestamp;P1;durP1;ratioP1;P2;durP2;ratioP2
62724;SDS011;49026;52.600;4.694;2024-03-23T00:55:41;20.35;;;3.00;;
62724;SDS011;49026;52.600;4.694;2024-03-23T00:58:07;17.23;;;3.00;;
62724;SDS011;49026;52.600;4.694;2024-03-23T01:00:32;16.98;;;3.03;;
62724;SDS011;49026;52.600;4.694;2024-03-23T01:02:58;18.38;;;3.28;;
62724;SDS011;49026;52.600;4.694;2024-03-23T01:05:23;11.65;;;2.40;;
62724;SDS011;49026;52.600;4.694;2024-03-23T01:07:49;20.58;;;3.30;;
62724;SDS011;49026;52.600;4.694;2024-03-23T01:10:14;13.90;;;3.63;;
62724;SDS011;49026;52.600;4.694;2024-03-23T01:12:41;17.67;;;2.47;;
62724;SDS011;49026;52.600;4.694;2024-03-23T01:15:07;19.58;;;3.47;;
62724;SDS011;49026;52.600;4.694;2024-03-23T01:17:33;13.88;;;2.33;;
62724;SDS011;49026;52.600;4.694;2024-03-23T01:19:58;19.58;;;3.05;;
62724;SDS011;49026;52.600;4.694;2024-03-23T01:22:23;14.90;;;2.95;;
62724;SDS011;49026;52.600;4.694;2024-03-23T01:24:49;19.67;;;2.97;;
62724;SDS011;49026;52.600;4.694;2024-03-23T01:27:14;20.02;;;3.38;;
62724;SDS011;49026;52.600;4.694;2024-03-23T01:29:42;19.35;;;2.70;;
62724;SDS011;49026;52.600;4.694;2024-03-23T01:32:07;23.60;;;3.10;;
62724;SDS011;49026;52.600;4.694;2024-03-23T01:34:33;21.40;;;3.03;;
62724;SDS011;49026;52.600;4.694;2024-03-23T01:36:58;17.33;;;3.15;;
62724;SDS011;49026;52.600;4.694;2024-03-23T01:39:24;14.73;;;2.83;;
62724;SDS011;49026;52.600;4.694;2024-03-23T01:41:50;15.05;;;2.55;;
62724;SDS011;49026;52.600;4.694;2024-03-23T01:44:16;17.35;;;2.90;;
62724;SDS011;49026;52.600;4.694;2024-03-23T01:46:42;26.33;;;3.28;;
62724;SDS011;49026;52.600;4.694;2024-03-23T01:49:09;16.73;;;2.85;;
62724;SDS011;49026;52.600;4.694;2024-03-23T01:51:35;17.00;;;2.55;;
62724;SDS011;49026;52.600;4.694;2024-03-23T01:54:01;13.48;;;3.47;;
62724;SDS011;49026;52.600;4.694;2024-03-23T01:56:32;16.85;;;2.88;;
62724;SDS011;49026;52.600;4.694;2024-03-23T01:59:04;23.70;;;3.60;;
62724;SDS011;49026;52.600;4.694;2024-03-23T02:01:30;25.10;;;3.20;;
62724;SDS011;49026;52.600;4.694;2024-03-23T02:04:01;18.23;;;2.63;;
62724;SDS011;49026;52.600;4.694;2024-03-23T02:06:27;16.17;;;2.47;;
62724;SDS011;49026;52.600;4.694;2024-03-23T02:08:53;13.98;;;2.45;;
62724;SDS011;49026;52.600;4.694;2024-03-23T02:11:19;21.35;;;2.88;;
62724;SDS011;49026;52.600;4.694;2024-03-23T02:13:45;17.48;;;2.47;;
62724;SDS011;49026;52.600;4.694;2024-03-23T02:16:10;15.65;;;2.72;;
62724;SDS011;49026;52.600;4.694;2024-03-23T02:18:36;15.32;;;2.72;;
62724;SDS011;49026;52.600;4.694;2024-03-23T02:21:02;10.07;;;2.10;;
62724;SDS011;49026;52.600;4.694;2024-03-23T02:23:28;13.35;;;2.53;;
62724;SDS011;49026;52.600;4.694;2024-03-23T02:25:53;14.00;;;2.53;;
62724;SDS011;49026;52.600;4.694;2024-03-23T02:28:19;24.25;;;2.90;;
62724;SDS011;49026;52.600;4.694;2024-03-23T02:30:45;14.50;;;2.92;;
62724;SDS011;49026;52.600;4.694;2024-03-23T02:33:10;18.85;;;2.30;;
62724;SDS011;49026;52.600;4.694;2024-03-23T02:35:36;14.25;;;2.40;;
62724;SDS011;49026;52.600;4.694;2024-03-23T02:38:01;15.63;;;2.22;;
62724;SDS011;49026;52.600;4.694;2024-03-23T02:40:27;15.38;;;2.20;;
62724;SDS011;49026;52.600;4.694;2024-03-23T02:42:55;18.08;;;3.05;;
62724;SDS011;49026;52.600;4.694;2024-03-23T02:45:21;13.98;;;2.42;;
62724;SDS011;49026;52.600;4.694;2024-03-23T02:47:49;14.27;;;2.45;;
62724;SDS011;49026;52.600;4.694;2024-03-23T02:50:17;15.98;;;3.03;;
62724;SDS011;49026;52.600;4.694;2024-03-23T02:52:43;25.00;;;3.50;;
62724;SDS011;49026;52.600;4.694;2024-03-23T02:55:09;12.10;;;2.22;;
62724;SDS011;49026;52.600;4.694;2024-03-23T02:57:34;17.35;;;2.53;;
62724;SDS011;49026;52.600;4.694;2024-03-23T02:59:59;20.65;;;2.72;;
62724;SDS011;49026;52.600;4.694;2024-03-23T03:02:25;17.55;;;2.22;;
62724;SDS011;49026;52.600;4.694;2024-03-23T03:04:50;19.83;;;2.67;;
62724;SDS011;49026;52.600;4.694;2024-03-23T03:07:15;16.67;;;2.50;;
62724;SDS011;49026;52.600;4.694;2024-03-23T03:09:41;13.95;;;2.80;;
62724;SDS011;49026;52.600;4.694;2024-03-23T03:12:06;17.83;;;2.50;;
62724;SDS011;49026;52.600;4.694;2024-03-23T03:14:32;21.92;;;2.70;;
62724;SDS011;49026;52.600;4.694;2024-03-23T03:16:57;13.70;;;2.38;;
62724;SDS011;49026;52.600;4.694;2024-03-23T03:19:23;19.65;;;2.85;;
62724;SDS011;49026;52.600;4.694;2024-03-23T03:21:48;16.83;;;2.50;;
62724;SDS011;49026;52.600;4.694;2024-03-23T03:24:14;21.80;;;2.58;;
62724;SDS011;49026;52.600;4.694;2024-03-23T03:26:40;15.95;;;2.60;;
62724;SDS011;49026;52.600;4.694;2024-03-23T03:29:05;16.77;;;2.70;;
62724;SDS011;49026;52.600;4.694;2024-03-23T03:31:30;14.68;;;2.72;;
62724;SDS011;49026;52.600;4.694;2024-03-23T03:33:56;20.58;;;2.83;;
62724;SDS011;49026;52.600;4.694;2024-03-23T03:36:22;14.77;;;2.70;;
62724;SDS011;49026;52.600;4.694;2024-03-23T03:38:50;16.88;;;2.65;;
62724;SDS011;49026;52.600;4.694;2024-03-23T03:41:15;14.65;;;2.10;;
62724;SDS011;49026;52.600;4.694;2024-03-23T03:43:40;21.25;;;2.85;;
62724;SDS011;49026;52.600;4.694;2024-03-23T03:46:06;15.45;;;2.35;;
62724;SDS011;49026;52.600;4.694;2024-03-23T03:48:33;18.25;;;2.67;;
62724;SDS011;49026;52.600;4.694;2024-03-23T03:50:58;21.48;;;3.30;;
62724;SDS011;49026;52.600;4.694;2024-03-23T03:53:23;20.58;;;3.33;;
62724;SDS011;49026;52.600;4.694;2024-03-23T03:55:49;18.25;;;3.08;;
62724;SDS011;49026;52.600;4.694;2024-03-23T03:58:14;23.70;;;3.65;;
62724;SDS011;49026;52.600;4.694;2024-03-23T04:00:40;13.00;;;2.22;;
62724;SDS011;49026;52.600;4.694;2024-03-23T04:03:05;16.77;;;4.32;;
62724;SDS011;49026;52.600;4.694;2024-03-23T04:05:31;12.23;;;2.55;;
62724;SDS011;49026;52.600;4.694;2024-03-23T04:07:56;16.08;;;2.35;;
62724;SDS011;49026;52.600;4.694;2024-03-23T04:10:21;13.38;;;2.50;;
62724;SDS011;49026;52.600;4.694;2024-03-23T04:12:47;20.20;;;3.17;;
62724;SDS011;49026;52.600;4.694;2024-03-23T04:15:13;15.57;;;3.13;;
62724;SDS011;49026;52.600;4.694;2024-03-23T04:17:38;17.48;;;3.05;;
62724;SDS011;49026;52.600;4.694;2024-03-23T04:20:04;15.00;;;2.83;;
62724;SDS011;49026;52.600;4.694;2024-03-23T04:22:34;21.05;;;3.60;;
62724;SDS011;49026;52.600;4.694;2024-03-23T04:24:59;28.10;;;4.45;;
62724;SDS011;49026;52.600;4.694;2024-03-23T04:27:25;16.33;;;2.92;;
62724;SDS011;49026;52.600;4.694;2024-03-23T04:29:50;19.63;;;3.08;;
62724;SDS011;49026;52.600;4.694;2024-03-23T04:32:16;22.23;;;3.63;;
62724;SDS011;49026;52.600;4.694;2024-03-23T04:34:43;22.48;;;3.60;;
62724;SDS011;49026;52.600;4.694;2024-03-23T04:37:09;16.25;;;3.08;;
62724;SDS011;49026;52.600;4.694;2024-03-23T04:39:38;16.55;;;2.60;;
62724;SDS011;49026;52.600;4.694;2024-03-23T04:42:04;24.52;;;3.95;;
62724;SDS011;49026;52.600;4.694;2024-03-23T04:44:30;16.52;;;2.95;;
62724;SDS011;49026;52.600;4.694;2024-03-23T04:46:56;18.73;;;3.05;;
62724;SDS011;49026;52.600;4.694;2024-03-23T04:49:22;17.27;;;3.13;;
62724;SDS011;49026;52.600;4.694;2024-03-23T04:51:47;15.70;;;3.15;;
62724;SDS011;49026;52.600;4.694;2024-03-23T04:54:13;16.85;;;3.40;;
62724;SDS011;49026;52.600;4.694;2024-03-23T04:56:38;16.65;;;3.47;;
62724;SDS011;49026;52.600;4.694;2024-03-23T04:59:03;18.90;;;3.03;;
62724;SDS011;49026;52.600;4.694;2024-03-23T05:01:30;18.23;;;3.20;;
62724;SDS011;49026;52.600;4.694;2024-03-23T05:03:56;16.05;;;3.03;;
62724;SDS011;49026;52.600;4.694;2024-03-23T05:06:22;16.92;;;2.60;;
62724;SDS011;49026;52.600;4.694;2024-03-23T05:08:48;18.90;;;3.05;;
62724;SDS011;49026;52.600;4.694;2024-03-23T05:11:13;14.35;;;2.47;;
62724;SDS011;49026;52.600;4.694;2024-03-23T05:13:39;19.25;;;3.13;;
62724;SDS011;49026;52.600;4.694;2024-03-23T05:16:04;18.58;;;3.30;;
62724;SDS011;49026;52.600;4.694;2024-03-23T05:18:30;16.25;;;2.97;;
62724;SDS011;49026;52.600;4.694;2024-03-23T05:20:56;18.20;;;3.05;;
62724;SDS011;49026;52.600;4.694;2024-03-23T05:23:22;17.85;;;3.83;;
62724;SDS011;49026;52.600;4.694;2024-03-23T05:25:48;20.85;;;3.65;;
62724;SDS011;49026;52.600;4.694;2024-03-23T05:28:13;21.58;;;3.20;;
62724;SDS011;49026;52.600;4.694;2024-03-23T05:30:38;14.50;;;3.22;;
62724;SDS011;49026;52.600;4.694;2024-03-23T05:33:05;18.33;;;3.75;;
62724;SDS011;49026;52.600;4.694;2024-03-23T05:35:30;21.33;;;3.67;;
62724;SDS011;49026;52.600;4.694;2024-03-23T05:37:55;16.42;;;2.90;;
62724;SDS011;49026;52.600;4.694;2024-03-23T05:40:21;21.17;;;3.15;;
62724;SDS011;49026;52.600;4.694;2024-03-23T05:42:46;12.73;;;2.95;;
62724;SDS011;49026;52.600;4.694;2024-03-23T05:45:11;13.82;;;3.00;;
62724;SDS011;49026;52.600;4.694;2024-03-23T05:47:37;14.63;;;2.83;;
62724;SDS011;49026;52.600;4.694;2024-03-23T05:50:02;30.63;;;3.92;;
62724;SDS011;49026;52.600;4.694;2024-03-23T05:52:28;13.55;;;3.35;;
62724;SDS011;49026;52.600;4.694;2024-03-23T05:54:54;16.75;;;2.72;;
62724;SDS011;49026;52.600;4.694;2024-03-23T05:57:20;23.23;;;3.58;;
62724;SDS011;49026;52.600;4.694;2024-03-23T05:59:45;16.42;;;3.00;;
62724;SDS011;49026;52.600;4.694;2024-03-23T06:02:11;19.73;;;3.60;;
62724;SDS011;49026;52.600;4.694;2024-03-23T06:04:36;24.40;;;3.80;;
62724;SDS011;49026;52.600;4.694;2024-03-23T06:07:02;18.48;;;3.47;;
62724;SDS011;49026;52.600;4.694;2024-03-23T06:09:27;21.67;;;3.53;;
62724;SDS011;49026;52.600;4.694;2024-03-23T06:11:56;18.20;;;3.45;;
62724;SDS011;49026;52.600;4.694;2024-03-23T06:14:21;18.52;;;3.30;;
62724;SDS011;49026;52.600;4.694;2024-03-23T06:16:47;21.27;;;2.97;;
62724;SDS011;49026;52.600;4.694;2024-03-23T06:19:12;17.50;;;2.80;;
62724;SDS011;49026;52.600;4.694;2024-03-23T06:21:38;13.05;;;2.47;;
62724;SDS011;49026;52.600;4.694;2024-03-23T06:24:09;19.27;;;2.97;;
62724;SDS011;49026;52.600;4.694;2024-03-23T06:26:34;19.10;;;3.25;;
62724;SDS011;49026;52.600;4.694;2024-03-23T06:28:59;17.10;;;3.42;;
62724;SDS011;49026;52.600;4.694;2024-03-23T06:31:24;18.83;;;2.97;;
62724;SDS011;49026;52.600;4.694;2024-03-23T06:33:50;24.27;;;3.15;;
62724;SDS011;49026;52.600;4.694;2024-03-23T06:36:15;20.00;;;3.13;;
62724;SDS011;49026;52.600;4.694;2024-03-23T06:38:41;25.20;;;4.22;;
62724;SDS011;49026;52.600;4.694;2024-03-23T06:41:06;21.73;;;4.88;;
62724;SDS011;49026;52.600;4.694;2024-03-23T06:43:31;22.50;;;3.97;;
62724;SDS011;49026;52.600;4.694;2024-03-23T06:45:57;26.60;;;5.70;;
62724;SDS011;49026;52.600;4.694;2024-03-23T06:48:22;19.42;;;3.58;;
62724;SDS011;49026;52.600;4.694;2024-03-23T06:50:48;17.88;;;5.15;;
62724;SDS011;49026;52.600;4.694;2024-03-23T06:53:14;17.55;;;4.05;;
62724;SDS011;49026;52.600;4.694;2024-03-23T06:55:40;19.85;;;4.45;;
62724;SDS011;49026;52.600;4.694;2024-03-23T06:58:05;21.67;;;4.13;;
62724;SDS011;49026;52.600;4.694;2024-03-23T07:00:31;17.58;;;3.63;;
62724;SDS011;49026;52.600;4.694;2024-03-23T07:03:00;19.77;;;3.63;;
62724;SDS011;49026;52.600;4.694;2024-03-23T07:05:26;22.58;;;3.97;;
62724;SDS011;49026;52.600;4.694;2024-03-23T07:07:52;14.05;;;2.67;;
62724;SDS011;49026;52.600;4.694;2024-03-23T07:10:17;17.08;;;3.13;;
62724;SDS011;49026;52.600;4.694;2024-03-23T07:12:43;20.40;;;3.20;;
62724;SDS011;49026;52.600;4.694;2024-03-23T07:15:09;18.77;;;4.30;;
62724;SDS011;49026;52.600;4.694;2024-03-23T07:17:34;18.55;;;3.05;;
62724;SDS011;49026;52.600;4.694;2024-03-23T07:20:00;17.30;;;2.72;;
62724;SDS011;49026;52.600;4.694;2024-03-23T07:22:28;21.63;;;3.33;;
62724;SDS011;49026;52.600;4.694;2024-03-23T07:24:54;10.38;;;2.53;;
62724;SDS011;49026;52.600;4.694;2024-03-23T07:27:20;19.15;;;3.05;;
62724;SDS011;49026;52.600;4.694;2024-03-23T07:29:49;20.48;;;3.03;;
62724;SDS011;49026;52.600;4.694;2024-03-23T07:32:14;13.20;;;3.13;;
62724;SDS011;49026;52.600;4.694;2024-03-23T07:34:40;19.70;;;3.15;;
62724;SDS011;49026;52.600;4.694;2024-03-23T07:37:05;16.42;;;2.45;;
62724;SDS011;49026;52.600;4.694;2024-03-23T07:39:31;15.48;;;2.78;;
62724;SDS011;49026;52.600;4.694;2024-03-23T07:41:58;14.95;;;2.50;;
62724;SDS011;49026;52.600;4.694;2024-03-23T07:44:23;14.55;;;2.13;;
62724;SDS011;49026;52.600;4.694;2024-03-23T07:46:49;14.13;;;2.38;;
62724;SDS011;49026;52.600;4.694;2024-03-23T07:49:14;17.33;;;1.92;;
62724;SDS011;49026;52.600;4.694;2024-03-23T07:51:39;9.10;;;1.98;;
62724;SDS011;49026;52.600;4.694;2024-03-23T07:54:05;10.90;;;1.83;;
62724;SDS011;49026;52.600;4.694;2024-03-23T07:56:31;17.52;;;3.15;;
62724;SDS011;49026;52.600;4.694;2024-03-23T07:58:57;13.30;;;2.15;;
62724;SDS011;49026;52.600;4.694;2024-03-23T08:01:22;10.95;;;1.70;;
62724;SDS011;49026;52.600;4.694;2024-03-23T08:03:49;9.38;;;1.88;;
62724;SDS011;49026;52.600;4.694;2024-03-23T08:06:18;8.10;;;1.77;;
62724;SDS011;49026;52.600;4.694;2024-03-23T08:08:46;11.45;;;1.83;;
62724;SDS011;49026;52.600;4.694;2024-03-23T08:11:12;11.18;;;2.33;;
62724;SDS011;49026;52.600;4.694;2024-03-23T08:13:39;9.32;;;2.38;;
62724;SDS011;49026;52.600;4.694;2024-03-23T08:16:05;10.13;;;1.75;;
62724;SDS011;49026;52.600;4.694;2024-03-23T08:18:31;6.38;;;1.70;;
62724;SDS011;49026;52.600;4.694;2024-03-23T08:21:01;10.32;;;1.63;;
62724;SDS011;49026;52.600;4.694;2024-03-23T08:23:28;16.33;;;1.98;;
62724;SDS011;49026;52.600;4.694;2024-03-23T08:25:58;13.65;;;1.85;;
62724;SDS011;49026;52.600;4.694;2024-03-23T08:28:24;10.82;;;2.08;;
62724;SDS011;49026;52.600;4.694;2024-03-23T08:30:50;8.77;;;2.42;;
62724;SDS011;49026;52.600;4.694;2024-03-23T08:33:16;9.32;;;2.30;;
62724;SDS011;49026;52.600;4.694;2024-03-23T08:35:41;13.90;;;2.15;;
62724;SDS011;49026;52.600;4.694;2024-03-23T08:38:07;11.65;;;2.08;;
62724;SDS011;49026;52.600;4.694;2024-03-23T08:40:33;14.38;;;1.95;;
62724;SDS011;49026;52.600;4.694;2024-03-23T08:42:58;20.02;;;2.95;;
62724;SDS011;49026;52.600;4.694;2024-03-23T08:45:26;11.07;;;2.10;;
62724;SDS011;49026;52.600;4.694;2024-03-23T08:47:52;10.68;;;1.70;;
62724;SDS011;49026;52.600;4.694;2024-03-23T08:50:17;13.63;;;2.60;;
62724;SDS011;49026;52.600;4.694;2024-03-23T08:52:43;12.57;;;2.00;;
62724;SDS011;49026;52.600;4.694;2024-03-23T08:55:09;17.35;;;3.33;;
62724;SDS011;49026;52.600;4.694;2024-03-23T08:57:35;8.45;;;2.13;;
62724;SDS011;49026;52.600;4.694;2024-03-23T09:00:09;14.38;;;2.50;;
62724;SDS011;49026;52.600;4.694;2024-03-23T09:02:36;10.32;;;2.08;;
62724;SDS011;49026;52.600;4.694;2024-03-23T09:05:04;9.48;;;2.47;;
62724;SDS011;49026;52.600;4.694;2024-03-23T09:07:31;10.02;;;2.28;;
62724;SDS011;49026;52.600;4.694;2024-03-23T09:09:56;10.88;;;2.28;;
62724;SDS011;49026;52.600;4.694;2024-03-23T09:12:22;12.70;;;2.35;;
62724;SDS011;49026;52.600;4.694;2024-03-23T09:14:47;5.30;;;1.85;;
62724;SDS011;49026;52.600;4.694;2024-03-23T09:17:14;5.55;;;1.40;;
62724;SDS011;49026;52.600;4.694;2024-03-23T09:19:40;12.80;;;2.05;;
62724;SDS011;49026;52.600;4.694;2024-03-23T09:22:05;8.82;;;2.35;;
62724;SDS011;49026;52.600;4.694;2024-03-23T09:24:30;16.85;;;2.97;;
62724;SDS011;49026;52.600;4.694;2024-03-23T09:26:57;11.05;;;2.22;;
62724;SDS011;49026;52.600;4.694;2024-03-23T09:29:22;12.63;;;2.30;;
62724;SDS011;49026;52.600;4.694;2024-03-23T09:31:48;16.58;;;2.15;;
62724;SDS011;49026;52.600;4.694;2024-03-23T09:34:19;13.63;;;2.40;;
62724;SDS011;49026;52.600;4.694;2024-03-23T09:36:44;11.23;;;1.88;;
62724;SDS011;49026;52.600;4.694;2024-03-23T09:39:10;13.48;;;2.15;;
62724;SDS011;49026;52.600;4.694;2024-03-23T09:41:35;17.95;;;2.88;;
62724;SDS011;49026;52.600;4.694;2024-03-23T09:44:04;14.60;;;2.45;;
62724;SDS011;49026;52.600;4.694;2024-03-23T09:46:30;11.25;;;2.55;;
62724;SDS011;49026;52.600;4.694;2024-03-23T09:48:59;8.65;;;1.63;;
62724;SDS011;49026;52.600;4.694;2024-03-23T09:51:25;15.43;;;2.17;;
62724;SDS011;49026;52.600;4.694;2024-03-23T09:53:51;21.17;;;2.80;;
62724;SDS011;49026;52.600;4.694;2024-03-23T09:56:17;12.13;;;2.38;;
62724;SDS011;49026;52.600;4.694;2024-03-23T09:58:42;16.70;;;2.88;;
62724;SDS011;49026;52.600;4.694;2024-03-23T10:01:08;10.18;;;2.05;;
62724;SDS011;49026;52.600;4.694;2024-03-23T10:03:44;14.20;;;2.35;;
62724;SDS011;49026;52.600;4.694;2024-03-23T10:06:10;12.68;;;2.38;;
62724;SDS011;49026;52.600;4.694;2024-03-23T10:08:36;13.18;;;2.20;;
62724;SDS011;49026;52.600;4.694;2024-03-23T10:11:14;15.95;;;2.50;;
62724;SDS011;49026;52.600;4.694;2024-03-23T10:13:41;13.80;;;2.47;;
62724;SDS011;49026;52.600;4.694;2024-03-23T10:16:08;13.82;;;2.08;;
62724;SDS011;49026;52.600;4.694;2024-03-23T10:18:38;17.75;;;2.38;;
62724;SDS011;49026;52.600;4.694;2024-03-23T10:23:35;14.50;;;2.42;;
62724;SDS011;49026;52.600;4.694;2024-03-23T10:26:17;11.13;;;1.92;;
62724;SDS011;49026;52.600;4.694;2024-03-23T10:29:05;11.55;;;2.60;;
62724;SDS011;49026;52.600;4.694;2024-03-23T10:31:33;15.70;;;2.80;;
62724;SDS011;49026;52.600;4.694;2024-03-23T10:34:02;14.70;;;2.00;;
62724;SDS011;49026;52.600;4.694;2024-03-23T10:36:28;16.30;;;2.45;;
62724;SDS011;49026;52.600;4.694;2024-03-23T10:38:55;11.75;;;2.55;;
62724;SDS011;49026;52.600;4.694;2024-03-23T10:41:21;12.00;;;2.42;;
62724;SDS011;49026;52.600;4.694;2024-03-23T10:43:47;22.95;;;2.72;;
62724;SDS011;49026;52.600;4.694;2024-03-23T10:46:13;16.67;;;2.10;;
62724;SDS011;49026;52.600;4.694;2024-03-23T10:48:39;14.70;;;2.08;;
62724;SDS011;49026;52.600;4.694;2024-03-23T10:51:06;11.25;;;2.35;;
62724;SDS011;49026;52.600;4.694;2024-03-23T10:53:33;8.88;;;1.85;;
62724;SDS011;49026;52.600;4.694;2024-03-23T10:56:00;12.60;;;2.20;;
62724;SDS011;49026;52.600;4.694;2024-03-23T10:58:30;10.82;;;2.22;;
62724;SDS011;49026;52.600;4.694;2024-03-23T11:00:58;12.27;;;2.10;;
62724;SDS011;49026;52.600;4.694;2024-03-23T11:05:55;9.32;;;2.47;;
62724;SDS011;49026;52.600;4.694;2024-03-23T11:08:30;10.85;;;2.05;;
62724;SDS011;49026;52.600;4.694;2024-03-23T11:13:47;10.23;;;2.10;;
62724;SDS011;49026;52.600;4.694;2024-03-23T11:16:14;18.17;;;3.85;;
62724;SDS011;49026;52.600;4.694;2024-03-23T11:18:41;12.02;;;2.65;;
62724;SDS011;49026;52.600;4.694;2024-03-23T11:21:08;16.13;;;3.40;;
62724;SDS011;49026;52.600;4.694;2024-03-23T11:23:34;12.13;;;2.72;;
62724;SDS011;49026;52.600;4.694;2024-03-23T11:26:00;12.85;;;2.33;;
62724;SDS011;49026;52.600;4.694;2024-03-23T11:28:26;16.98;;;3.28;;
62724;SDS011;49026;52.600;4.694;2024-03-23T11:30:51;11.15;;;2.28;;
62724;SDS011;49026;52.600;4.694;2024-03-23T11:33:17;6.95;;;1.92;;
62724;SDS011;49026;52.600;4.694;2024-03-23T11:35:44;12.27;;;2.20;;
62724;SDS011;49026;52.600;4.694;2024-03-23T11:38:16;20.58;;;2.65;;
62724;SDS011;49026;52.600;4.694;2024-03-23T11:40:46;24.05;;;3.83;;
62724;SDS011;49026;52.600;4.694;2024-03-23T11:43:19;19.45;;;2.90;;
62724;SDS011;49026;52.600;4.694;2024-03-23T11:45:50;14.82;;;2.63;;
62724;SDS011;49026;52.600;4.694;2024-03-23T11:48:18;22.38;;;3.72;;
62724;SDS011;49026;52.600;4.694;2024-03-23T11:50:48;10.98;;;1.95;;
62724;SDS011;49026;52.600;4.694;2024-03-23T11:53:22;8.02;;;1.55;;
62724;SDS011;49026;52.600;4.694;2024-03-23T11:55:59;12.27;;;2.30;;
62724;SDS011;49026;52.600;4.694;2024-03-23T11:58:26;20.33;;;2.65;;
62724;SDS011;49026;52.600;4.694;2024-03-23T12:00:53;16.30;;;3.20;;
62724;SDS011;49026;52.600;4.694;2024-03-23T12:05:51;11.93;;;1.95;;
62724;SDS011;49026;52.600;4.694;2024-03-23T12:11:06;16.15;;;3.15;;
62724;SDS011;49026;52.600;4.694;2024-03-23T12:13:34;11.45;;;2.05;;
62724;SDS011;49026;52.600;4.694;2024-03-23T12:16:09;8.25;;;1.38;;
62724;SDS011;49026;52.600;4.694;2024-03-23T12:18:38;10.48;;;1.40;;
62724;SDS011;49026;52.600;4.694;2024-03-23T12:21:05;9.23;;;1.63;;
62724;SDS011;49026;52.600;4.694;2024-03-23T12:23:31;13.32;;;2.22;;
62724;SDS011;49026;52.600;4.694;2024-03-23T12:25:57;14.55;;;2.70;;
62724;SDS011;49026;52.600;4.694;2024-03-23T12:28:22;12.55;;;2.25;;
62724;SDS011;49026;52.600;4.694;2024-03-23T12:30:50;14.30;;;2.08;;
62724;SDS011;49026;52.600;4.694;2024-03-23T12:33:15;10.32;;;2.03;;
62724;SDS011;49026;52.600;4.694;2024-03-23T12:35:41;15.20;;;2.33;;
62724;SDS011;49026;52.600;4.694;2024-03-23T12:38:06;12.00;;;2.65;;
62724;SDS011;49026;52.600;4.694;2024-03-23T12:40:32;14.20;;;2.35;;
62724;SDS011;49026;52.600;4.694;2024-03-23T12:42:57;16.80;;;2.45;;
62724;SDS011;49026;52.600;4.694;2024-03-23T12:45:23;18.08;;;3.50;;
62724;SDS011;49026;52.600;4.694;2024-03-23T12:47:48;13.80;;;2.67;;
62724;SDS011;49026;52.600;4.694;2024-03-23T12:50:14;17.95;;;3.88;;
62724;SDS011;49026;52.600;4.694;2024-03-23T12:52:39;11.90;;;2.42;;
62724;SDS011;49026;52.600;4.694;2024-03-23T12:55:05;15.00;;;2.40;;
62724;SDS011;49026;52.600;4.694;2024-03-23T12:57:30;13.07;;;3.08;;
62724;SDS011;49026;52.600;4.694;2024-03-23T12:59:56;11.65;;;2.00;;
62724;SDS011;49026;52.600;4.694;2024-03-23T13:02:22;9.07;;;1.58;;
62724;SDS011;49026;52.600;4.694;2024-03-23T13:04:51;10.82;;;1.95;;
62724;SDS011;49026;52.600;4.694;2024-03-23T13:07:17;6.90;;;1.65;;
62724;SDS011;49026;52.600;4.694;2024-03-23T13:09:43;11.45;;;1.98;;
62724;SDS011;49026;52.600;4.694;2024-03-23T13:12:09;10.27;;;2.38;;
62724;SDS011;49026;52.600;4.694;2024-03-23T13:14:37;8.57;;;2.10;;
62724;SDS011;49026;52.600;4.694;2024-03-23T13:17:02;9.25;;;1.70;;
62724;SDS011;49026;52.600;4.694;2024-03-23T13:19:28;6.70;;;1.73;;
62724;SDS011;49026;52.600;4.694;2024-03-23T13:21:56;10.73;;;2.20;;
62724;SDS011;49026;52.600;4.694;2024-03-23T13:24:25;9.40;;;1.67;;
62724;SDS011;49026;52.600;4.694;2024-03-23T13:26:52;8.85;;;1.70;;
62724;SDS011;49026;52.600;4.694;2024-03-23T13:29:18;9.85;;;1.90;;
62724;SDS011;49026;52.600;4.694;2024-03-23T13:31:48;10.55;;;1.95;;
62724;SDS011;49026;52.600;4.694;2024-03-23T13:34:14;11.45;;;1.80;;
62724;SDS011;49026;52.600;4.694;2024-03-23T13:36:40;11.15;;;2.05;;
62724;SDS011;49026;52.600;4.694;2024-03-23T13:39:06;18.25;;;2.53;;
62724;SDS011;49026;52.600;4.694;2024-03-23T13:41:43;11.90;;;2.20;;
62724;SDS011;49026;52.600;4.694;2024-03-23T13:44:13;12.05;;;2.05;;
62724;SDS011;49026;52.600;4.694;2024-03-23T13:46:39;11.48;;;1.60;;
62724;SDS011;49026;52.600;4.694;2024-03-23T13:49:07;10.93;;;1.70;;
62724;SDS011;49026;52.600;4.694;2024-03-23T13:51:38;8.98;;;1.80;;
62724;SDS011;49026;52.600;4.694;2024-03-23T13:54:04;25.60;;;2.65;;
62724;SDS011;49026;52.600;4.694;2024-03-23T13:56:29;16.10;;;3.13;;
62724;SDS011;49026;52.600;4.694;2024-03-23T13:58:55;7.93;;;1.27;;
62724;SDS011;49026;52.600;4.694;2024-03-23T14:01:21;10.23;;;1.27;;
62724;SDS011;49026;52.600;4.694;2024-03-23T14:03:47;13.32;;;2.08;;
62724;SDS011;49026;52.600;4.694;2024-03-23T14:06:12;8.32;;;1.67;;
62724;SDS011;49026;52.600;4.694;2024-03-23T14:08:38;8.15;;;1.85;;
62724;SDS011;49026;52.600;4.694;2024-03-23T14:11:07;8.15;;;1.40;;
62724;SDS011;49026;52.600;4.694;2024-03-23T14:13:36;8.53;;;2.20;;
62724;SDS011;49026;52.600;4.694;2024-03-23T14:16:02;10.77;;;1.80;;
62724;SDS011;49026;52.600;4.694;2024-03-23T14:18:29;6.57;;;1.08;;
62724;SDS011;49026;52.600;4.694;2024-03-23T14:20:58;9.35;;;2.00;;
62724;SDS011;49026;52.600;4.694;2024-03-23T14:23:25;5.97;;;1.45;;
62724;SDS011;49026;52.600;4.694;2024-03-23T14:25:54;9.95;;;1.35;;
62724;SDS011;49026;52.600;4.694;2024-03-23T14:28:20;14.95;;;1.98;;
62724;SDS011;49026;52.600;4.694;2024-03-23T14:30:46;11.98;;;1.77;;
62724;SDS011;49026;52.600;4.694;2024-03-23T14:33:12;14.00;;;2.75;;
62724;SDS011;49026;52.600;4.694;2024-03-23T14:35:37;10.05;;;2.05;;
62724;SDS011;49026;52.600;4.694;2024-03-23T14:38:03;17.05;;;2.20;;
62724;SDS011;49026;52.600;4.694;2024-03-23T14:40:28;13.27;;;1.60;;
62724;SDS011;49026;52.600;4.694;2024-03-23T14:42:54;8.35;;;1.67;;
62724;SDS011;49026;52.600;4.694;2024-03-23T14:45:23;6.53;;;1.77;;
62724;SDS011;49026;52.600;4.694;2024-03-23T14:47:49;10.70;;;2.03;;
62724;SDS011;49026;52.600;4.694;2024-03-23T14:50:17;9.18;;;2.22;;
62724;SDS011;49026;52.600;4.694;2024-03-23T14:52:46;9.73;;;1.83;;
62724;SDS011;49026;52.600;4.694;2024-03-23T14:55:12;8.02;;;1.77;;
62724;SDS011;49026;52.600;4.694;2024-03-23T14:57:37;10.13;;;1.63;;
62724;SDS011;49026;52.600;4.694;2024-03-23T15:00:05;9.98;;;1.77;;
62724;SDS011;49026;52.600;4.694;2024-03-23T15:02:32;12.25;;;2.25;;
62724;SDS011;49026;52.600;4.694;2024-03-23T15:04:58;8.80;;;2.53;;
62724;SDS011;49026;52.600;4.694;2024-03-23T15:07:24;8.73;;;1.80;;
62724;SDS011;49026;52.600;4.694;2024-03-23T15:09:49;5.82;;;1.77;;
62724;SDS011;49026;52.600;4.694;2024-03-23T15:12:14;13.60;;;2.13;;
62724;SDS011;49026;52.600;4.694;2024-03-23T15:14:40;11.50;;;3.00;;
62724;SDS011;49026;52.600;4.694;2024-03-23T15:17:05;9.30;;;1.55;;
62724;SDS011;49026;52.600;4.694;2024-03-23T15:19:32;8.93;;;1.63;;
62724;SDS011;49026;52.600;4.694;2024-03-23T15:21:57;6.90;;;1.15;;
62724;SDS011;49026;52.600;4.694;2024-03-23T15:24:23;3.30;;;1.23;;
62724;SDS011;49026;52.600;4.694;2024-03-23T15:26:50;5.35;;;1.20;;
62724;SDS011;49026;52.600;4.694;2024-03-23T15:29:17;3.58;;;0.93;;
62724;SDS011;49026;52.600;4.694;2024-03-23T15:31:43;8.43;;;1.55;;
62724;SDS011;49026;52.600;4.694;2024-03-23T15:34:08;10.52;;;1.83;;
62724;SDS011;49026;52.600;4.694;2024-03-23T15:36:37;4.95;;;1.33;;
62724;SDS011;49026;52.600;4.694;2024-03-23T15:39:04;11.57;;;1.48;;